createdAt,value
2018-12-10T00:00:52.803Z,1007.15
2018-12-10T00:01:53.342Z,1007.14
2018-12-10T00:02:54.000Z,1007.12
2018-12-10T00:03:54.652Z,1007.13
2018-12-10T00:04:55.305Z,1007.11
2018-12-10T00:05:56.070Z,1007.08
2018-12-10T00:06:56.618Z,1007.14
2018-12-10T00:07:57.273Z,1007.16
2018-12-10T00:08:57.986Z,1007.20
2018-12-10T00:09:58.578Z,1007.20
2018-12-10T00:10:59.236Z,1007.25
2018-12-10T00:11:59.887Z,1007.26
2018-12-10T00:13:00.555Z,1007.27
2018-12-10T00:14:01.205Z,1007.30
2018-12-10T00:15:01.861Z,1007.28
2018-12-10T00:16:02.538Z,1007.34
2018-12-10T00:17:03.184Z,1007.37
2018-12-10T00:18:03.843Z,1007.33
2018-12-10T00:19:04.508Z,1007.30
2018-12-10T00:20:05.211Z,1007.36
2018-12-10T00:21:05.820Z,1007.29
2018-12-10T00:22:06.476Z,1007.34
2018-12-10T00:23:07.153Z,1007.37
2018-12-10T00:24:07.832Z,1007.36
2018-12-10T00:25:08.510Z,1007.37
2018-12-10T00:26:09.144Z,1007.40
2018-12-10T00:27:11.623Z,1007.39
2018-12-10T00:28:10.453Z,1007.37
2018-12-10T00:29:11.111Z,1007.43
2018-12-10T00:30:11.773Z,1007.43
2018-12-10T00:31:12.414Z,1007.42
2018-12-10T00:32:13.065Z,1007.42
2018-12-10T00:33:13.728Z,1007.40
2018-12-10T00:34:14.382Z,1007.46
2018-12-10T00:35:15.037Z,1007.49
2018-12-10T00:36:15.681Z,1007.49
2018-12-10T00:37:16.339Z,1007.49
2018-12-10T00:38:16.991Z,1007.57
2018-12-10T00:39:17.642Z,1007.53
2018-12-10T00:40:18.317Z,1007.60
2018-12-10T00:41:18.969Z,1007.62
2018-12-10T00:42:19.628Z,1007.60
2018-12-10T00:43:20.286Z,1007.61
2018-12-10T00:44:20.987Z,1007.64
2018-12-10T00:45:21.592Z,1007.66
2018-12-10T00:46:22.664Z,1007.72
2018-12-10T00:47:22.893Z,1007.75
2018-12-10T00:48:23.548Z,1007.78
2018-12-10T00:49:24.204Z,1007.75
2018-12-10T00:50:24.861Z,1007.70
2018-12-10T00:51:25.512Z,1007.80
2018-12-10T00:52:26.163Z,1007.77
2018-12-10T00:53:26.811Z,1007.77
2018-12-10T00:54:27.471Z,1007.80
2018-12-10T00:55:28.165Z,1007.76
2018-12-10T00:56:28.815Z,1007.76
2018-12-10T00:57:29.459Z,1007.74
2018-12-10T00:58:30.148Z,1007.77
2018-12-10T00:59:30.782Z,1007.83
2018-12-10T01:00:31.430Z,1007.83
2018-12-10T01:01:32.085Z,1007.83
2018-12-10T01:02:32.744Z,1007.83
2018-12-10T01:03:33.399Z,1007.84
2018-12-10T01:04:34.057Z,1007.85
2018-12-10T01:05:34.711Z,1007.86
2018-12-10T01:06:35.365Z,1007.89
2018-12-10T01:07:36.014Z,1007.88
2018-12-10T01:08:36.673Z,1007.90
2018-12-10T01:09:37.336Z,1007.95
2018-12-10T01:10:37.983Z,1007.91
2018-12-10T01:11:38.636Z,1007.95
2018-12-10T01:12:39.288Z,1007.98
2018-12-10T01:13:39.940Z,1007.97
2018-12-10T01:14:40.593Z,1007.96
2018-12-10T01:15:41.246Z,1007.99
2018-12-10T01:16:41.899Z,1008.03
2018-12-10T01:17:42.552Z,1008.02
2018-12-10T01:18:43.328Z,1008.02
2018-12-10T01:19:43.857Z,1008.05
2018-12-10T01:20:44.519Z,1008.04
2018-12-10T01:21:45.164Z,1008.04
2018-12-10T01:22:45.816Z,1008.04
2018-12-10T01:23:46.472Z,1008.07
2018-12-10T01:24:47.121Z,1008.08
2018-12-10T01:25:47.795Z,1008.11
2018-12-10T01:26:48.427Z,1008.09
2018-12-10T01:27:49.080Z,1008.08
2018-12-10T01:28:49.733Z,1008.08
2018-12-10T01:29:50.382Z,1008.15
2018-12-10T01:30:51.037Z,1008.18
2018-12-10T01:31:51.689Z,1008.24
2018-12-10T01:32:52.339Z,1008.32
2018-12-10T01:33:52.988Z,1008.34
2018-12-10T01:34:53.641Z,1008.34
2018-12-10T01:35:54.294Z,1008.37
2018-12-10T01:36:54.944Z,1008.39
2018-12-10T01:37:55.591Z,1008.32
2018-12-10T01:38:56.248Z,1008.36
2018-12-10T01:39:56.902Z,1008.29
2018-12-10T01:40:57.549Z,1008.36
2018-12-10T01:41:58.202Z,1008.38
2018-12-10T01:42:58.849Z,1008.40
2018-12-10T01:43:59.505Z,1008.37
2018-12-10T01:45:00.159Z,1008.38
2018-12-10T01:46:00.812Z,1008.49
2018-12-10T01:47:01.460Z,1008.51
2018-12-10T01:48:02.120Z,1008.55
2018-12-10T01:49:02.775Z,1008.53
2018-12-10T01:50:03.421Z,1008.63
2018-12-10T01:51:04.079Z,1008.61
2018-12-10T01:52:04.734Z,1008.59
2018-12-10T01:53:05.376Z,1008.55
2018-12-10T01:54:06.028Z,1008.54
2018-12-10T01:55:06.731Z,1008.57
2018-12-10T01:56:07.341Z,1008.61
2018-12-10T01:57:08.034Z,1008.61
2018-12-10T01:58:08.669Z,1008.59
2018-12-10T01:59:09.318Z,1008.59
2018-12-10T02:00:09.978Z,1008.66
2018-12-10T02:01:10.628Z,1008.70
2018-12-10T02:02:11.283Z,1008.73
2018-12-10T02:03:11.950Z,1008.69
2018-12-10T02:04:12.595Z,1008.74
2018-12-10T02:05:13.243Z,1008.74
2018-12-10T02:06:13.902Z,1008.71
2018-12-10T02:07:14.552Z,1008.78
2018-12-10T02:08:15.202Z,1008.80
2018-12-10T02:09:15.859Z,1008.82
2018-12-10T02:10:16.509Z,1008.78
2018-12-10T02:11:17.158Z,1008.80
2018-12-10T02:12:17.814Z,1008.82
2018-12-10T02:13:18.584Z,1008.83
2018-12-10T02:14:19.125Z,1008.86
2018-12-10T02:15:19.789Z,1008.93
2018-12-10T02:16:20.437Z,1008.90
2018-12-10T02:17:21.101Z,1008.88
2018-12-10T02:18:21.759Z,1008.95
2018-12-10T02:19:22.405Z,1008.96
2018-12-10T02:20:23.134Z,1009.01
2018-12-10T02:21:23.704Z,1009.00
2018-12-10T02:22:24.357Z,1009.03
2018-12-10T02:23:25.014Z,1008.98
2018-12-10T02:24:25.656Z,1009.00
2018-12-10T02:25:26.309Z,1009.00
2018-12-10T02:26:26.959Z,1009.02
2018-12-10T02:27:27.615Z,1009.00
2018-12-10T02:28:28.283Z,1009.01
2018-12-10T02:29:28.928Z,1008.96
2018-12-10T02:30:29.575Z,1008.98
2018-12-10T02:31:30.230Z,1009.00
2018-12-10T02:32:30.885Z,1009.01
2018-12-10T02:33:31.543Z,1009.03
2018-12-10T02:34:32.188Z,1009.09
2018-12-10T02:35:32.852Z,1009.01
2018-12-10T02:36:33.497Z,1009.04
2018-12-10T02:37:34.140Z,1009.03
2018-12-10T02:38:34.803Z,1009.07
2018-12-10T02:39:35.453Z,1009.10
2018-12-10T02:40:36.104Z,1009.04
2018-12-10T02:41:36.785Z,1009.06
2018-12-10T02:42:37.418Z,1009.06
2018-12-10T02:43:38.065Z,1009.09
2018-12-10T02:44:38.717Z,1009.06
2018-12-10T02:45:39.372Z,1009.09
2018-12-10T02:46:40.026Z,1009.08
2018-12-10T02:47:40.680Z,1009.12
2018-12-10T02:48:41.337Z,1009.02
2018-12-10T02:49:41.987Z,1009.06
2018-12-10T02:50:42.641Z,1009.05
2018-12-10T02:51:43.289Z,1009.13
2018-12-10T02:52:43.945Z,1009.09
2018-12-10T02:53:44.602Z,1009.08
2018-12-10T02:54:45.251Z,1009.16
2018-12-10T02:55:45.906Z,1009.13
2018-12-10T02:56:46.555Z,1009.14
2018-12-10T02:57:47.210Z,1009.11
2018-12-10T02:58:47.855Z,1009.10
2018-12-10T02:59:48.510Z,1009.14
2018-12-10T03:00:49.166Z,1009.15
2018-12-10T03:01:49.833Z,1009.17
2018-12-10T03:02:50.521Z,1009.19
2018-12-10T03:03:51.158Z,1009.19
2018-12-10T03:04:51.810Z,1009.17
2018-12-10T03:05:52.464Z,1009.19
2018-12-10T03:06:53.117Z,1009.21
2018-12-10T03:07:53.769Z,1009.13
2018-12-10T03:08:54.414Z,1009.16
2018-12-10T03:09:55.068Z,1009.17
2018-12-10T03:10:55.722Z,1009.22
2018-12-10T03:11:56.371Z,1009.18
2018-12-10T03:12:57.036Z,1009.16
2018-12-10T03:13:57.681Z,1009.19
2018-12-10T03:14:58.328Z,1009.16
2018-12-10T03:15:59.008Z,1009.16
2018-12-10T03:16:59.640Z,1009.19
2018-12-10T03:18:00.295Z,1009.24
2018-12-10T03:19:00.939Z,1009.20
2018-12-10T03:20:01.603Z,1009.19
2018-12-10T03:21:02.264Z,1009.15
2018-12-10T03:22:02.940Z,1009.19
2018-12-10T03:23:03.565Z,1009.20
2018-12-10T03:24:04.221Z,1009.21
2018-12-10T03:25:04.881Z,1009.22
2018-12-10T03:26:05.539Z,1009.25
2018-12-10T03:27:06.184Z,1009.26
2018-12-10T03:28:06.833Z,1009.25
2018-12-10T03:29:07.485Z,1009.23
2018-12-10T03:30:08.138Z,1009.30
2018-12-10T03:31:08.798Z,1009.25
2018-12-10T03:32:09.440Z,1009.26
2018-12-10T03:33:10.099Z,1009.23
2018-12-10T03:34:10.743Z,1009.26
2018-12-10T03:35:11.395Z,1009.32
2018-12-10T03:36:12.044Z,1009.41
2018-12-10T03:37:12.698Z,1009.43
2018-12-10T03:38:13.347Z,1009.42
2018-12-10T03:39:13.999Z,1009.48
2018-12-10T03:40:14.650Z,1009.51
2018-12-10T03:41:15.307Z,1009.49
2018-12-10T03:42:15.954Z,1009.50
2018-12-10T03:43:16.607Z,1009.58
2018-12-10T03:44:17.260Z,1009.52
2018-12-10T03:45:17.920Z,1009.49
2018-12-10T03:46:18.587Z,1009.44
2018-12-10T03:47:19.222Z,1009.49
2018-12-10T03:48:19.881Z,1009.48
2018-12-10T03:49:20.525Z,1009.50
2018-12-10T03:50:21.182Z,1009.52
2018-12-10T03:51:21.830Z,1009.56
2018-12-10T03:52:22.486Z,1009.58
2018-12-10T03:53:23.139Z,1009.64
2018-12-10T03:54:23.788Z,1009.67
2018-12-10T03:55:24.439Z,1009.69
2018-12-10T03:56:25.101Z,1009.75
2018-12-10T03:57:25.757Z,1009.69
2018-12-10T03:58:26.410Z,1009.71
2018-12-10T03:59:27.071Z,1009.72
2018-12-10T04:00:27.726Z,1009.72
2018-12-10T04:01:28.376Z,1009.70
2018-12-10T04:02:29.029Z,1009.68
2018-12-10T04:03:29.677Z,1009.72
2018-12-10T04:04:30.337Z,1009.72
2018-12-10T04:05:30.986Z,1009.76
2018-12-10T04:06:31.670Z,1009.77
2018-12-10T04:07:32.287Z,1009.77
2018-12-10T04:08:32.938Z,1009.81
2018-12-10T04:09:33.589Z,1009.82
2018-12-10T04:10:34.246Z,1009.81
2018-12-10T04:11:34.907Z,1009.80
2018-12-10T04:12:35.557Z,1009.75
2018-12-10T04:13:36.211Z,1009.76
2018-12-10T04:14:36.861Z,1009.77
2018-12-10T04:15:37.512Z,1009.79
2018-12-10T04:16:38.204Z,1009.77
2018-12-10T04:17:38.834Z,1009.78
2018-12-10T04:18:39.505Z,1009.82
2018-12-10T04:19:40.141Z,1009.81
2018-12-10T04:20:40.795Z,1009.83
2018-12-10T04:21:41.447Z,1009.83
2018-12-10T04:22:42.121Z,1009.87
2018-12-10T04:23:42.754Z,1009.86
2018-12-10T04:24:43.409Z,1009.92
2018-12-10T04:25:44.057Z,1009.88
2018-12-10T04:26:44.711Z,1009.88
2018-12-10T04:27:45.359Z,1009.87
2018-12-10T04:28:46.011Z,1009.88
2018-12-10T04:29:46.664Z,1009.91
2018-12-10T04:30:47.309Z,1009.93
2018-12-10T04:31:47.970Z,1009.95
2018-12-10T04:32:48.624Z,1009.96
2018-12-10T04:33:49.272Z,1009.96
2018-12-10T04:34:49.925Z,1009.95
2018-12-10T04:35:50.575Z,1009.95
2018-12-10T04:36:51.237Z,1009.96
2018-12-10T04:37:51.886Z,1009.91
2018-12-10T04:38:52.637Z,1009.92
2018-12-10T04:39:53.182Z,1009.92
2018-12-10T04:40:53.849Z,1009.95
2018-12-10T04:41:54.490Z,1009.92
2018-12-10T04:42:55.145Z,1009.92
2018-12-10T04:43:55.792Z,1009.95
2018-12-10T04:44:56.444Z,1009.93
2018-12-10T04:45:57.101Z,1009.91
2018-12-10T04:46:57.747Z,1009.96
2018-12-10T04:47:58.400Z,1010.04
2018-12-10T04:48:59.054Z,1009.99
2018-12-10T04:49:59.701Z,1009.98
2018-12-10T04:51:00.353Z,1010.06
2018-12-10T04:52:01.007Z,1010.03
2018-12-10T04:53:01.660Z,1010.06
2018-12-10T04:54:02.313Z,1010.08
2018-12-10T04:55:02.958Z,1010.01
2018-12-10T04:56:03.631Z,1010.12
2018-12-10T04:57:04.279Z,1010.14
2018-12-10T04:58:04.931Z,1010.11
2018-12-10T04:59:05.707Z,1010.23
2018-12-10T05:00:08.365Z,1010.19
2018-12-10T05:01:06.984Z,1010.27
2018-12-10T05:02:07.650Z,1010.29
2018-12-10T05:03:08.303Z,1010.31
2018-12-10T05:04:08.984Z,1010.32
2018-12-10T05:05:09.660Z,1010.31
2018-12-10T05:06:10.393Z,1010.34
2018-12-10T05:07:10.955Z,1010.33
2018-12-10T05:08:11.691Z,1010.40
2018-12-10T05:09:12.257Z,1010.37
2018-12-10T05:10:12.910Z,1010.45
2018-12-10T05:11:13.564Z,1010.46
2018-12-10T05:12:14.232Z,1010.50
2018-12-10T05:13:14.882Z,1010.46
2018-12-10T05:14:15.533Z,1010.49
2018-12-10T05:15:16.184Z,1010.52
2018-12-10T05:16:16.839Z,1010.52
2018-12-10T05:17:17.489Z,1010.53
2018-12-10T05:18:18.140Z,1010.54
2018-12-10T05:19:18.797Z,1010.60
2018-12-10T05:20:19.446Z,1010.57
2018-12-10T05:21:20.105Z,1010.64
2018-12-10T05:22:20.741Z,1010.60
2018-12-10T05:23:21.398Z,1010.64
2018-12-10T05:24:22.051Z,1010.68
2018-12-10T05:25:22.704Z,1010.64
2018-12-10T05:26:23.358Z,1010.62
2018-12-10T05:27:24.015Z,1010.63
2018-12-10T05:28:24.658Z,1010.64
2018-12-10T05:29:25.334Z,1010.68
2018-12-10T05:30:25.968Z,1010.70
2018-12-10T05:31:26.619Z,1010.74
2018-12-10T05:32:27.267Z,1010.71
2018-12-10T05:33:27.935Z,1010.71
2018-12-10T05:34:28.588Z,1010.68
2018-12-10T05:35:29.237Z,1010.72
2018-12-10T05:36:29.890Z,1010.71
2018-12-10T05:37:30.541Z,1010.73
2018-12-10T05:38:31.194Z,1010.75
2018-12-10T05:39:31.852Z,1010.71
2018-12-10T05:40:32.500Z,1010.77
2018-12-10T05:41:33.154Z,1010.79
2018-12-10T05:42:33.825Z,1010.83
2018-12-10T05:43:34.451Z,1010.78
2018-12-10T05:44:35.112Z,1010.79
2018-12-10T05:45:35.763Z,1010.82
2018-12-10T05:46:36.414Z,1010.87
2018-12-10T05:47:37.075Z,1010.89
2018-12-10T05:48:37.728Z,1010.86
2018-12-10T05:49:38.397Z,1010.86
2018-12-10T05:50:39.050Z,1010.88
2018-12-10T05:51:39.702Z,1010.85
2018-12-10T05:52:40.359Z,1010.82
2018-12-10T05:53:41.011Z,1010.81
2018-12-10T05:54:41.660Z,1010.86
2018-12-10T05:55:42.313Z,1010.87
2018-12-10T05:56:42.963Z,1011.00
2018-12-10T05:57:43.616Z,1010.92
2018-12-10T05:58:44.271Z,1010.91
2018-12-10T05:59:44.921Z,1010.96
2018-12-10T06:00:45.573Z,1010.96
2018-12-10T06:01:46.222Z,1010.97
2018-12-10T06:02:46.873Z,1011.00
2018-12-10T06:03:47.524Z,1011.09
2018-12-10T06:04:48.170Z,1011.11
2018-12-10T06:05:48.823Z,1011.13
2018-12-10T06:06:49.475Z,1011.14
2018-12-10T06:07:50.126Z,1011.12
2018-12-10T06:08:50.778Z,1011.12
2018-12-10T06:09:51.434Z,1011.07
2018-12-10T06:10:52.080Z,1011.06
2018-12-10T06:11:52.735Z,1011.05
2018-12-10T06:12:53.383Z,1011.07
2018-12-10T06:13:54.037Z,1011.06
2018-12-10T06:14:54.697Z,1011.03
2018-12-10T06:15:55.355Z,1011.11
2018-12-10T06:16:56.008Z,1011.09
2018-12-10T06:17:56.665Z,1011.08
2018-12-10T06:18:57.317Z,1011.13
2018-12-10T06:19:57.966Z,1011.08
2018-12-10T06:20:58.618Z,1011.08
2018-12-10T06:21:59.269Z,1011.10
2018-12-10T06:22:59.938Z,1011.09
2018-12-10T06:24:00.593Z,1011.11
2018-12-10T06:25:01.239Z,1011.04
2018-12-10T06:26:01.901Z,1011.08
2018-12-10T06:27:02.600Z,1011.08
2018-12-10T06:28:03.359Z,1011.08
2018-12-10T06:29:04.024Z,1011.10
2018-12-10T06:30:04.608Z,1011.13
2018-12-10T06:31:05.292Z,1011.18
2018-12-10T06:32:05.926Z,1011.15
2018-12-10T06:33:06.583Z,1011.15
2018-12-10T06:34:09.151Z,1011.15
2018-12-10T06:35:07.884Z,1011.21
2018-12-10T06:36:08.537Z,1011.17
2018-12-10T06:37:09.185Z,1011.16
2018-12-10T06:38:09.834Z,1011.18
2018-12-10T06:39:10.492Z,1011.17
2018-12-10T06:40:11.147Z,1011.19
2018-12-10T06:41:11.799Z,1011.19
2018-12-10T06:42:12.456Z,1011.17
2018-12-10T06:43:13.133Z,1011.23
2018-12-10T06:44:13.902Z,1011.25
2018-12-10T06:45:14.447Z,1011.29
2018-12-10T06:46:15.096Z,1011.26
2018-12-10T06:47:15.753Z,1011.30
2018-12-10T06:48:16.437Z,1011.30
2018-12-10T06:49:17.086Z,1011.30
2018-12-10T06:50:17.746Z,1011.31
2018-12-10T06:51:18.393Z,1011.28
2018-12-10T06:52:19.042Z,1011.35
2018-12-10T06:53:19.696Z,1011.35
2018-12-10T06:54:20.346Z,1011.35
2018-12-10T06:55:20.993Z,1011.34
2018-12-10T06:56:21.648Z,1011.41
2018-12-10T06:57:22.304Z,1011.37
2018-12-10T06:58:22.953Z,1011.36
2018-12-10T06:59:23.601Z,1011.38
2018-12-10T07:00:24.253Z,1011.40
2018-12-10T07:01:24.903Z,1011.38
2018-12-10T07:02:25.554Z,1011.38
2018-12-10T07:03:26.211Z,1011.45
2018-12-10T07:04:26.862Z,1011.44
2018-12-10T07:05:27.511Z,1011.51
2018-12-10T07:06:28.164Z,1011.53
2018-12-10T07:07:28.814Z,1011.54
2018-12-10T07:08:29.464Z,1011.51
2018-12-10T07:09:30.120Z,1011.64
2018-12-10T07:10:30.765Z,1011.67
2018-12-10T07:11:31.426Z,1011.72
2018-12-10T07:12:32.081Z,1011.69
2018-12-10T07:13:32.735Z,1011.63
2018-12-10T07:14:33.389Z,1011.60
2018-12-10T07:15:34.043Z,1011.57
2018-12-10T07:16:34.696Z,1011.57
2018-12-10T07:17:35.362Z,1011.49
2018-12-10T07:18:36.005Z,1011.55
2018-12-10T07:19:36.656Z,1011.53
2018-12-10T07:20:37.305Z,1011.61
2018-12-10T07:21:37.962Z,1011.68
2018-12-10T07:22:38.609Z,1011.62
2018-12-10T07:23:39.262Z,1011.66
2018-12-10T07:24:39.908Z,1011.70
2018-12-10T07:25:40.561Z,1011.70
2018-12-10T07:26:41.214Z,1011.68
2018-12-10T07:27:41.859Z,1011.75
2018-12-10T07:28:42.509Z,1011.79
2018-12-10T07:29:43.165Z,1011.81
2018-12-10T07:30:43.815Z,1011.82
2018-12-10T07:31:44.470Z,1011.86
2018-12-10T07:32:45.125Z,1011.83
2018-12-10T07:33:45.776Z,1011.82
2018-12-10T07:34:46.429Z,1011.80
2018-12-10T07:35:47.091Z,1011.85
2018-12-10T07:36:47.752Z,1011.82
2018-12-10T07:37:48.414Z,1011.88
2018-12-10T07:38:49.055Z,1011.93
2018-12-10T07:39:49.704Z,1011.98
2018-12-10T07:40:50.352Z,1011.95
2018-12-10T07:44:35.849Z,1012.76
2018-12-10T07:45:36.469Z,1012.73
2018-12-10T07:46:37.289Z,1012.78
2018-12-10T07:47:38.389Z,1012.71
2018-12-10T07:48:38.894Z,1012.76
2018-12-10T07:49:39.791Z,1012.82
2018-12-10T07:50:40.280Z,1012.80
2018-12-10T07:51:40.849Z,1012.78
2018-12-10T07:52:41.356Z,1012.84
2018-12-10T07:53:42.107Z,1012.85
2018-12-10T07:54:43.246Z,1012.78
2018-12-10T07:55:44.025Z,1012.88
2018-12-10T07:56:44.980Z,1012.86
2018-12-10T07:57:45.793Z,1012.89
2018-12-10T07:58:46.761Z,1012.95
2018-12-10T07:59:47.737Z,1013.00
2018-12-10T08:00:48.593Z,1013.02
2018-12-10T08:01:49.417Z,1013.02
2018-12-10T08:02:50.044Z,1013.03
2018-12-10T08:03:50.813Z,1013.06
2018-12-10T08:04:52.619Z,1013.09
2018-12-10T08:05:53.576Z,1013.02
2018-12-10T08:06:54.684Z,1013.01
2018-12-10T08:07:55.386Z,1012.96
2018-12-10T08:08:56.340Z,1012.97
2018-12-10T08:09:57.259Z,1012.93
2018-12-10T08:10:58.293Z,1012.94
2018-12-10T08:11:59.387Z,1013.00
2018-12-10T08:13:00.083Z,1012.97
2018-12-10T08:14:01.055Z,1012.95
2018-12-10T08:15:01.955Z,1012.98
2018-12-10T08:16:02.917Z,1013.03
2018-12-10T08:17:04.256Z,1013.03
2018-12-10T08:18:05.237Z,1013.00
2018-12-10T08:19:06.239Z,1012.98
2018-12-10T08:20:07.249Z,1012.98
2018-12-10T08:21:08.206Z,1012.98
2018-12-10T08:22:08.850Z,1013.00
2018-12-10T08:23:09.527Z,1013.07
2018-12-10T08:24:10.130Z,1013.01
2018-12-10T08:25:11.186Z,1013.06
2018-12-10T08:26:11.929Z,1013.05
2018-12-10T08:27:12.737Z,1013.06
2018-12-10T08:28:13.853Z,1013.08
2018-12-10T08:29:14.712Z,1013.10
2018-12-10T08:30:15.750Z,1013.11
2018-12-10T08:31:16.657Z,1013.10
2018-12-10T08:32:17.714Z,1013.17
2018-12-10T08:33:18.650Z,1013.19
2018-12-10T08:34:19.667Z,1013.14
2018-12-10T08:35:20.529Z,1013.17
2018-12-10T08:36:21.047Z,1013.18
2018-12-10T08:37:22.466Z,1013.14
2018-12-10T08:38:22.940Z,1013.16
2018-12-10T08:39:23.559Z,1013.15
2018-12-10T08:40:24.384Z,1013.16
2018-12-10T08:41:24.770Z,1013.15
2018-12-10T08:42:25.695Z,1013.13
2018-12-10T08:43:26.357Z,1013.11
2018-12-10T08:44:27.011Z,1013.19
2018-12-10T08:45:27.684Z,1013.13
2018-12-10T08:46:28.600Z,1013.14
2018-12-10T08:47:29.643Z,1013.13
2018-12-10T08:48:30.297Z,1013.15
2018-12-10T08:49:30.964Z,1013.16
2018-12-10T08:58:18.740Z,1013.24
2018-12-10T08:59:19.940Z,1013.25
2018-12-10T09:00:21.949Z,1013.33
2018-12-10T09:01:22.633Z,1013.34
2018-12-10T09:02:23.387Z,1013.37
2018-12-10T09:03:24.042Z,1013.32
2018-12-10T09:04:24.680Z,1013.33
2018-12-10T09:05:25.330Z,1013.34
2018-12-10T09:06:26.082Z,1013.37
2018-12-10T09:07:26.743Z,1013.37
2018-12-10T09:08:27.380Z,1013.39
2018-12-10T09:09:29.080Z,1013.42
2018-12-10T09:10:29.741Z,1013.39
2018-12-10T09:11:30.418Z,1013.47
2018-12-10T09:12:31.080Z,1013.48
2018-12-10T09:13:31.746Z,1013.48
2018-12-10T09:14:32.382Z,1013.50
2018-12-10T09:15:33.035Z,1013.42
2018-12-10T09:16:33.684Z,1013.44
2018-12-10T09:17:34.332Z,1013.43
2018-12-10T09:18:34.983Z,1013.44
2018-12-10T09:19:35.646Z,1013.45
2018-12-10T09:25:34.765Z,1013.67
2018-12-10T09:59:18.196Z,1013.81
2018-12-10T10:09:11.338Z,1013.84
2018-12-10T10:10:19.894Z,1013.75
2018-12-10T10:11:20.535Z,1013.80
2018-12-10T10:12:23.775Z,1013.84
2018-12-10T10:13:23.950Z,1013.83
2018-12-10T10:14:25.734Z,1013.82
2018-12-10T10:15:26.282Z,1013.76
2018-12-10T10:16:43.355Z,1013.86
2018-12-10T10:17:44.013Z,1013.67
2018-12-10T10:18:51.360Z,1013.76
2018-12-10T10:19:52.015Z,1013.75
2018-12-10T10:20:52.817Z,1013.80
2018-12-10T10:21:53.462Z,1013.76
2018-12-10T10:23:08.898Z,1013.78
2018-12-10T10:24:09.547Z,1013.79
2018-12-10T10:25:26.838Z,1013.82
2018-12-10T10:26:27.555Z,1013.80
2018-12-10T10:27:28.392Z,1013.84
2018-12-10T10:28:29.039Z,1013.86
2018-12-10T10:29:31.892Z,1013.84
2018-12-10T10:30:32.558Z,1013.82
2018-12-10T10:31:33.340Z,1013.84
2018-12-10T10:32:33.989Z,1013.83
2018-12-10T10:33:49.329Z,1013.83
2018-12-10T10:34:49.990Z,1013.87
2018-12-10T10:35:50.773Z,1013.86
2018-12-10T10:36:51.425Z,1013.90
2018-12-10T10:37:54.182Z,1013.88
2018-12-10T10:38:54.830Z,1013.96
2018-12-10T10:39:55.612Z,1013.94
2018-12-10T10:40:56.259Z,1013.94
2018-12-10T10:42:04.845Z,1013.98
2018-12-10T10:43:05.513Z,1013.91
2018-12-10T10:44:08.351Z,1013.94
2018-12-10T10:45:08.993Z,1013.94
2018-12-10T10:46:10.816Z,1013.90
2018-12-10T10:47:11.467Z,1013.91
2018-12-10T10:48:13.283Z,1013.84
2018-12-10T10:49:13.951Z,1013.84
2018-12-10T10:50:14.729Z,1013.86
2018-12-10T10:51:15.395Z,1013.83
2018-12-10T10:52:23.914Z,1013.76
2018-12-10T10:53:24.561Z,1013.88
2018-12-10T10:54:25.253Z,1013.79
2018-12-10T10:55:25.911Z,1013.84
2018-12-10T10:56:27.625Z,1013.83
2018-12-10T10:57:28.277Z,1013.81
2018-12-10T10:58:28.963Z,1013.80
2018-12-10T10:59:29.631Z,1013.74
2018-12-10T11:00:30.303Z,1013.72
2018-12-10T11:01:32.050Z,1013.71
2018-12-10T11:02:32.724Z,1013.68
2018-12-10T11:03:33.362Z,1013.76
2018-12-10T11:04:37.616Z,1013.72
2018-12-10T11:05:34.747Z,1013.69
2018-12-10T11:06:35.421Z,1013.64
2018-12-10T11:07:36.198Z,1013.68
2018-12-10T11:08:36.837Z,1013.74
2018-12-10T11:09:37.533Z,1013.78
2018-12-10T11:10:38.191Z,1013.82
2018-12-10T11:11:38.851Z,1013.76
2018-12-10T11:12:39.493Z,1013.79
2018-12-10T11:13:40.147Z,1013.70
2018-12-10T11:14:40.797Z,1013.80
2018-12-10T11:15:41.573Z,1013.76
2018-12-10T11:16:42.217Z,1013.73
2018-12-10T11:17:42.876Z,1013.71
2018-12-10T11:18:43.538Z,1013.76
2018-12-10T11:19:44.191Z,1013.77
2018-12-10T11:20:44.829Z,1013.72
2018-12-10T11:21:46.554Z,1013.72
2018-12-10T11:22:47.172Z,1013.75
2018-12-10T11:23:47.980Z,1013.67
2018-12-10T11:24:48.587Z,1013.71
2018-12-10T11:25:49.255Z,1013.68
2018-12-10T11:26:49.973Z,1013.74
2018-12-10T11:27:51.191Z,1013.71
2018-12-10T11:28:51.897Z,1013.71
2018-12-10T11:29:52.728Z,1013.62
2018-12-10T11:30:53.540Z,1013.69
2018-12-10T11:31:54.199Z,1013.65
2018-12-10T11:32:54.888Z,1013.69
2018-12-10T11:33:55.548Z,1013.60
2018-12-10T11:34:56.192Z,1013.56
2018-12-10T11:35:56.865Z,1013.65
2018-12-10T11:36:57.513Z,1013.64
2018-12-10T11:37:58.166Z,1013.70
2018-12-10T12:01:20.895Z,1013.65
2018-12-10T12:02:29.635Z,1013.55
2018-12-10T12:05:15.938Z,1013.56
2018-12-10T12:06:16.829Z,1013.61
2018-12-10T12:07:17.486Z,1013.56
2018-12-10T12:08:18.245Z,1013.48
2018-12-10T12:09:18.899Z,1013.56
2018-12-10T12:10:19.550Z,1013.50
2018-12-10T12:11:20.329Z,1013.60
2018-12-10T12:12:21.017Z,1013.54
2018-12-10T12:13:21.755Z,1013.56
2018-12-10T12:14:22.428Z,1013.57
2018-12-10T12:15:23.094Z,1013.56
2018-12-10T12:16:23.729Z,1013.63
2018-12-10T12:17:24.469Z,1013.59
2018-12-10T12:18:25.111Z,1013.59
2018-12-10T12:19:25.802Z,1013.59
2018-12-10T12:20:26.452Z,1013.53
2018-12-10T12:21:27.105Z,1013.60
2018-12-10T12:22:27.765Z,1013.59
2018-12-10T12:23:28.457Z,1013.59
2018-12-10T12:24:29.107Z,1013.56
2018-12-10T12:25:29.873Z,1013.58
2018-12-10T12:26:30.538Z,1013.56
2018-12-10T12:56:45.177Z,1013.24
2018-12-10T12:57:45.816Z,1013.26
2018-12-10T12:58:46.478Z,1013.26
2018-12-10T12:59:47.231Z,1013.18
2018-12-10T13:00:47.881Z,1013.25
2018-12-10T13:01:49.379Z,1013.23
2018-12-10T13:02:49.309Z,1013.21
2018-12-10T13:03:49.969Z,1013.24
2018-12-10T13:04:50.647Z,1013.28
2018-12-10T13:05:51.444Z,1013.22
2018-12-10T13:06:52.083Z,1013.26
2018-12-10T13:07:53.838Z,1013.13
2018-12-10T13:08:54.489Z,1013.18
2018-12-10T13:09:55.292Z,1013.16
2018-12-10T13:10:55.942Z,1013.34
2018-12-10T13:11:57.602Z,1013.25
2018-12-10T13:12:58.264Z,1013.24
2018-12-10T13:13:58.997Z,1013.21
2018-12-10T13:15:00.648Z,1013.16
2018-12-10T13:16:01.310Z,1013.14
2018-12-10T13:17:01.990Z,1013.19
2018-12-10T13:18:02.641Z,1013.12
2018-12-10T13:19:03.334Z,1013.16
2018-12-10T13:20:03.996Z,1013.20
2018-12-10T13:21:04.679Z,1013.20
2018-12-10T13:22:05.333Z,1013.16
2018-12-10T13:56:57.750Z,1013.46
2018-12-10T13:57:58.379Z,1013.48
2018-12-10T13:59:01.192Z,1013.37
2018-12-10T14:00:01.819Z,1013.44
2018-12-10T14:01:09.253Z,1013.40
2018-12-10T14:02:09.913Z,1013.43
2018-12-10T14:03:19.280Z,1013.44
2018-12-10T14:04:19.934Z,1013.31
2018-12-10T14:05:22.691Z,1013.38
2018-12-10T14:06:23.356Z,1013.41
2018-12-10T14:07:24.030Z,1013.33
2018-12-10T14:08:24.675Z,1013.37
2018-12-10T14:09:32.246Z,1013.41
2018-12-10T14:10:32.880Z,1013.40
2018-12-10T14:11:35.696Z,1013.36
2018-12-10T14:12:36.183Z,1013.35
2018-12-10T14:13:37.072Z,1013.39
2018-12-10T14:14:37.702Z,1013.36
2018-12-10T14:15:38.489Z,1013.50
2018-12-10T14:16:39.207Z,1013.49
2018-12-10T14:17:46.914Z,1013.55
2018-12-10T14:18:47.552Z,1013.51
2018-12-10T14:19:49.369Z,1013.55
2018-12-10T14:20:50.024Z,1013.64
2018-12-10T14:21:50.833Z,1013.66
2018-12-10T14:22:51.465Z,1013.60
2018-12-10T14:23:53.304Z,1013.54
2018-12-10T14:24:53.952Z,1013.55
2018-12-10T14:25:54.766Z,1013.51
2018-12-10T14:26:55.458Z,1013.49
2018-12-10T14:27:56.096Z,1013.49
2018-12-10T14:28:56.742Z,1013.45
2018-12-10T14:29:57.385Z,1013.51
2018-12-10T14:30:58.102Z,1013.52
2018-12-10T14:31:58.736Z,1013.58
2018-12-10T14:32:59.573Z,1013.50
2018-12-10T14:34:00.236Z,1013.61
2018-12-10T14:35:00.869Z,1013.44
2018-12-10T14:36:01.544Z,1013.52
2018-12-10T14:37:02.190Z,1013.52
2018-12-10T14:38:02.831Z,1013.59
2018-12-10T14:39:03.508Z,1013.62
2018-12-10T14:40:04.159Z,1013.63
2018-12-10T14:41:04.903Z,1013.67